createdAt,value
2019-04-21T00:04:11.371Z,9.53
2019-04-21T00:09:34.362Z,18.73
2019-04-21T00:14:27.568Z,10.03
2019-04-21T00:19:26.805Z,11.37
2019-04-21T00:24:44.522Z,9.83
2019-04-21T00:29:51.967Z,9.40
2019-04-21T00:34:52.284Z,12.43
2019-04-21T00:40:13.204Z,13.30
2019-04-21T00:45:13.053Z,22.10
2019-04-21T00:50:27.857Z,13.73
2019-04-21T00:55:38.517Z,13.47
2019-04-21T01:00:47.126Z,14.60
2019-04-21T01:05:52.912Z,14.30
2019-04-21T01:10:49.229Z,14.30
2019-04-21T01:16:08.542Z,15.47
2019-04-21T01:20:47.894Z,17.60
2019-04-21T01:26:13.727Z,22.73
2019-04-21T01:31:17.509Z,23.67
2019-04-21T01:36:26.064Z,13.37
2019-04-21T01:41:41.315Z,19.07
2019-04-21T01:46:33.626Z,17.50
2019-04-21T01:52:02.918Z,13.30
2019-04-21T01:57:04.347Z,21.30
2019-04-21T02:02:10.743Z,19.50
2019-04-21T02:07:25.014Z,15.57
2019-04-21T02:12:25.548Z,18.07
2019-04-21T02:17:36.780Z,20.20
2019-04-21T02:23:01.935Z,17.33
2019-04-21T02:27:50.140Z,15.83
2019-04-21T02:33:11.006Z,18.07
2019-04-21T02:38:20.511Z,16.47
2019-04-21T02:43:18.759Z,15.50
2019-04-21T02:58:44.445Z,14.37
2019-04-21T03:03:54.383Z,14.80
2019-04-21T03:09:16.000Z,13.97
2019-04-21T03:14:11.186Z,15.03
2019-04-21T03:19:06.366Z,20.30
2019-04-21T03:24:39.936Z,13.57
2019-04-21T03:29:34.814Z,15.57
2019-04-21T03:39:37.329Z,14.90
2019-04-21T04:11:12.478Z,16.47
2019-04-21T04:16:07.101Z,15.07
2019-04-21T04:31:30.500Z,12.93
2019-04-21T04:42:08.112Z,12.17
2019-04-21T04:47:15.535Z,17.60
2019-04-21T04:57:29.061Z,14.07
2019-04-21T05:02:27.737Z,15.60
2019-04-21T05:07:36.686Z,11.60
2019-04-21T05:22:44.910Z,18.43
2019-04-21T05:27:42.948Z,22.77
2019-04-21T05:33:14.970Z,21.33
2019-04-21T05:38:18.436Z,19.70
2019-04-21T05:43:30.888Z,25.07
2019-04-21T05:48:36.386Z,23.73
2019-04-21T05:53:37.430Z,20.73
2019-04-21T05:58:43.789Z,25.27
2019-04-21T06:03:57.719Z,18.40
2019-04-21T06:09:00.827Z,23.57
2019-04-21T06:14:08.251Z,17.13
2019-04-21T06:19:14.508Z,26.40
2019-04-21T06:24:21.539Z,13.70
2019-04-21T06:29:28.588Z,13.83
2019-04-21T06:34:49.544Z,14.10
2019-04-21T06:39:52.150Z,12.77
2019-04-21T06:44:54.161Z,15.03
2019-04-21T06:49:58.492Z,15.83
2019-04-21T06:55:12.575Z,10.73
2019-04-21T07:00:06.215Z,10.17
2019-04-21T07:05:15.462Z,14.60
2019-04-21T07:10:22.501Z,12.37
2019-04-21T07:15:31.791Z,12.07
2019-04-21T07:20:38.111Z,10.13
2019-04-21T07:25:45.602Z,8.50
2019-04-21T07:30:54.570Z,8.53
2019-04-21T07:35:56.900Z,14.03
2019-04-21T07:40:56.782Z,11.93
2019-04-21T07:46:03.630Z,11.10
2019-04-21T07:51:25.192Z,8.40
2019-04-21T07:56:19.977Z,12.90
2019-04-21T08:01:38.581Z,9.10
2019-04-21T08:06:47.692Z,7.63
2019-04-21T08:11:48.673Z,8.63
2019-04-21T08:17:04.887Z,8.97
2019-04-21T08:22:11.022Z,14.83
2019-04-21T08:27:17.378Z,6.83
2019-04-21T08:32:31.212Z,5.23
2019-04-21T08:37:27.625Z,6.57
2019-04-21T08:42:31.578Z,6.53
2019-04-21T08:47:41.455Z,5.23
2019-04-21T08:52:50.934Z,5.53
2019-04-21T08:58:17.423Z,5.13
2019-04-21T09:03:22.667Z,7.50
2019-04-21T09:08:24.810Z,5.70
2019-04-21T09:13:29.660Z,4.17
2019-04-21T09:18:33.742Z,5.73
2019-04-21T09:23:45.187Z,4.53
2019-04-21T09:28:45.060Z,6.53
2019-04-21T09:33:45.210Z,5.50
2019-04-21T09:38:58.698Z,6.10
2019-04-21T09:43:55.713Z,5.57
2019-04-21T09:49:04.114Z,6.27
2019-04-21T09:54:13.610Z,6.43
2019-04-21T09:59:20.631Z,7.60
2019-04-21T10:04:20.679Z,5.85
2019-04-21T10:09:26.395Z,6.17
2019-04-21T10:14:31.399Z,4.85
2019-04-21T10:19:36.411Z,6.28
2019-04-21T10:24:42.493Z,5.62
2019-04-21T10:29:49.064Z,7.65
2019-04-21T10:34:55.132Z,5.75
2019-04-21T10:40:00.260Z,7.92
2019-04-21T10:45:07.371Z,4.50
2019-04-21T10:50:13.094Z,5.42
2019-04-21T10:55:36.721Z,8.73
2019-04-21T11:00:25.929Z,6.20
2019-04-21T11:05:32.410Z,5.50
2019-04-21T11:10:38.166Z,5.67
2019-04-21T11:15:43.319Z,5.08
2019-04-21T11:20:48.921Z,6.03
2019-04-21T11:25:54.142Z,7.53
2019-04-21T11:31:00.521Z,4.00
2019-04-21T11:36:06.987Z,6.87
2019-04-21T11:41:13.790Z,6.37
2019-04-21T11:46:20.414Z,7.72
2019-04-21T11:51:26.889Z,5.25
2019-04-21T11:56:32.751Z,5.55
2019-04-21T12:01:39.303Z,6.20
2019-04-21T12:06:47.676Z,8.20
2019-04-21T12:11:51.525Z,7.42
2019-04-21T12:16:57.212Z,4.55
2019-04-21T12:22:11.016Z,6.37
2019-04-21T12:27:09.804Z,5.97
2019-04-21T12:32:17.879Z,4.47
2019-04-21T12:37:24.630Z,5.22
2019-04-21T12:42:32.341Z,4.92
2019-04-21T12:47:37.803Z,7.45
2019-04-21T12:52:42.971Z,5.78
2019-04-21T12:57:48.017Z,4.85
2019-04-21T13:02:53.973Z,6.55
2019-04-21T13:07:59.763Z,7.83
2019-04-21T13:13:05.934Z,6.03
2019-04-21T13:18:12.249Z,5.33
2019-04-21T13:23:18.827Z,4.40
2019-04-21T13:28:24.915Z,13.70
2019-04-21T13:33:31.198Z,6.58
2019-04-21T13:38:43.173Z,6.35
2019-04-21T13:43:45.478Z,5.17
2019-04-21T13:48:50.846Z,4.10
2019-04-21T13:53:55.795Z,4.67
2019-04-21T13:59:02.214Z,5.08
2019-04-21T14:04:07.401Z,5.10
2019-04-21T14:09:13.841Z,3.83
2019-04-21T14:14:20.603Z,3.60
2019-04-21T14:19:25.864Z,5.37
2019-04-21T14:24:31.035Z,4.97
2019-04-21T14:29:37.560Z,5.22
2019-04-21T14:34:43.996Z,4.75
2019-04-21T14:39:57.828Z,4.53
2019-04-21T14:44:56.796Z,10.00
2019-04-21T14:50:18.840Z,5.28
2019-04-21T14:55:28.178Z,6.42
2019-04-21T15:00:48.301Z,3.60
2019-04-21T15:05:53.538Z,2.58
2019-04-21T15:10:58.858Z,2.08
2019-04-21T15:16:04.686Z,2.22
2019-04-21T15:21:11.040Z,3.12
2019-04-21T15:26:17.909Z,4.28
2019-04-21T15:31:29.486Z,2.30
2019-04-21T15:36:32.185Z,4.70
2019-04-21T15:41:37.036Z,7.17
2019-04-21T15:46:42.123Z,3.80
2019-04-21T15:51:47.278Z,2.90
2019-04-21T15:56:53.953Z,2.15
2019-04-21T16:02:04.350Z,2.65
2019-04-21T16:07:09.515Z,2.27
2019-04-21T16:12:15.796Z,2.67
2019-04-21T16:17:21.264Z,1.72
2019-04-21T16:22:26.529Z,2.47
2019-04-21T16:27:35.070Z,2.12
2019-04-21T16:32:40.139Z,30.37
2019-04-21T16:37:45.805Z,2.50
2019-04-21T16:42:52.053Z,3.85
2019-04-21T16:47:57.468Z,2.10
2019-04-21T16:53:04.305Z,3.52
2019-04-21T16:58:16.822Z,3.72
2019-04-21T17:03:18.810Z,2.30
2019-04-21T17:08:24.038Z,7.83
2019-04-21T17:13:29.643Z,3.60
2019-04-21T17:18:47.524Z,1.92
2019-04-21T17:23:41.443Z,5.12
2019-04-21T17:28:46.729Z,3.02
2019-04-21T17:33:59.129Z,6.92
2019-04-21T17:38:59.985Z,4.60
2019-04-21T17:44:06.702Z,3.27
2019-04-21T17:49:12.789Z,3.12
2019-04-21T17:54:27.619Z,1.95
2019-04-21T17:59:58.442Z,2.42
2019-04-21T18:04:57.839Z,2.55
2019-04-21T18:10:11.225Z,4.17
2019-04-21T18:15:02.427Z,5.33
2019-04-21T18:19:57.212Z,1.70
2019-04-21T18:25:10.640Z,9.60
2019-04-21T18:30:38.098Z,5.90
2019-04-21T18:36:00.219Z,2.40
2019-04-21T18:41:05.679Z,5.47
2019-04-21T18:46:40.074Z,3.87
2019-04-21T18:51:36.647Z,4.33
2019-04-21T18:57:05.394Z,3.43
2019-04-21T19:02:05.852Z,5.83
2019-04-21T19:07:20.020Z,3.20
2019-04-21T19:12:47.546Z,5.23
2019-04-21T19:22:45.361Z,3.03
2019-04-21T19:33:02.873Z,5.40
2019-04-21T19:37:59.391Z,3.63
2019-04-21T19:43:07.818Z,7.20
2019-04-21T19:48:24.210Z,3.10
2019-04-21T19:53:32.848Z,3.87
2019-04-21T19:58:27.487Z,2.77
2019-04-21T20:03:32.556Z,4.57
2019-04-21T20:08:59.118Z,3.60
2019-04-21T20:14:18.854Z,2.87
2019-04-21T20:18:57.383Z,3.20
2019-04-21T20:24:07.525Z,4.97
2019-04-21T20:29:20.175Z,3.17
2019-04-21T20:34:33.935Z,4.90
2019-04-21T20:39:23.256Z,4.27
2019-04-21T20:44:42.276Z,4.87
2019-04-21T20:49:38.471Z,3.13
2019-04-21T20:54:56.759Z,3.17
2019-04-21T21:00:03.175Z,4.37
2019-04-21T21:04:59.050Z,5.03
2019-04-21T21:10:16.669Z,4.23
2019-04-21T21:15:25.215Z,4.07
2019-04-21T21:20:32.358Z,3.93
2019-04-21T21:30:38.568Z,3.60
2019-04-21T21:35:43.903Z,3.53
2019-04-21T21:40:54.686Z,3.47
2019-04-21T21:45:53.567Z,6.00
2019-04-21T21:51:04.473Z,5.37
2019-04-21T21:56:00.838Z,3.93
2019-04-21T22:01:08.748Z,6.40
2019-04-21T22:06:21.475Z,4.70
2019-04-21T22:11:24.046Z,5.70
2019-04-21T22:16:43.201Z,4.63
2019-04-21T22:21:53.808Z,6.03
2019-04-21T22:26:43.185Z,5.50
2019-04-21T22:31:48.415Z,6.57
2019-04-21T22:37:01.509Z,7.07
2019-04-21T22:42:05.284Z,9.60
2019-04-21T22:47:15.315Z,4.77
2019-04-21T22:52:18.703Z,8.00
2019-04-21T22:57:23.744Z,5.90
2019-04-21T23:02:30.521Z,7.43
2019-04-21T23:07:41.450Z,7.90
2019-04-21T23:12:42.558Z,7.97
2019-04-21T23:18:06.910Z,5.43
2019-04-21T23:23:13.879Z,10.37
2019-04-21T23:28:17.449Z,7.80
2019-04-21T23:33:10.887Z,10.03
2019-04-21T23:38:14.725Z,6.50
2019-04-21T23:43:25.535Z,5.57
2019-04-21T23:48:39.144Z,10.23
2019-04-21T23:53:33.594Z,5.80
2019-04-21T23:58:40.208Z,5.27
